sensor_id;sensor_type;location;lat;lon;timestamp;P1;durP1;ratioP1;P2;durP2;ratioP2
70444;SDS011;57902;49.638;11.070;2022-09-19T00:01:06;1.95;;;0.47;;
70444;SDS011;57902;49.638;11.070;2022-09-19T00:03:41;0.68;;;0.22;;
70444;SDS011;57902;49.638;11.070;2022-09-19T00:06:10;2.35;;;0.55;;
70444;SDS011;57902;49.638;11.070;2022-09-19T00:08:38;6.10;;;0.80;;
70444;SDS011;57902;49.638;11.070;2022-09-19T00:11:06;1.48;;;0.60;;
70444;SDS011;57902;49.638;11.070;2022-09-19T00:13:34;1.30;;;0.50;;
70444;SDS011;57902;49.638;11.070;2022-09-19T00:16:01;1.02;;;0.40;;
70444;SDS011;57902;49.638;11.070;2022-09-19T00:18:29;1.08;;;0.40;;
70444;SDS011;57902;49.638;11.070;2022-09-19T00:20:56;0.95;;;0.47;;
70444;SDS011;57902;49.638;11.070;2022-09-19T00:23:23;0.60;;;0.40;;
70444;SDS011;57902;49.638;11.070;2022-09-19T00:26:09;2.85;;;0.40;;
70444;SDS011;57902;49.638;11.070;2022-09-19T00:28:43;1.92;;;0.50;;
70444;SDS011;57902;49.638;11.070;2022-09-19T00:31:15;0.40;;;0.30;;
70444;SDS011;57902;49.638;11.070;2022-09-19T00:33:44;0.57;;;0.40;;
70444;SDS011;57902;49.638;11.070;2022-09-19T00:36:12;1.27;;;0.63;;
70444;SDS011;57902;49.638;11.070;2022-09-19T00:38:40;1.63;;;0.45;;
70444;SDS011;57902;49.638;11.070;2022-09-19T00:41:07;0.63;;;0.32;;
70444;SDS011;57902;49.638;11.070;2022-09-19T00:43:42;0.30;;;0.30;;
70444;SDS011;57902;49.638;11.070;2022-09-19T00:46:11;1.40;;;0.40;;
70444;SDS011;57902;49.638;11.070;2022-09-19T00:48:37;0.40;;;0.40;;
70444;SDS011;57902;49.638;11.070;2022-09-19T00:51:12;1.67;;;0.50;;
70444;SDS011;57902;49.638;11.070;2022-09-19T00:53:41;1.08;;;0.40;;
70444;SDS011;57902;49.638;11.070;2022-09-19T00:56:10;1.13;;;0.50;;
70444;SDS011;57902;49.638;11.070;2022-09-19T00:58:38;1.42;;;0.38;;
70444;SDS011;57902;49.638;11.070;2022-09-19T01:01:10;1.25;;;0.50;;
70444;SDS011;57902;49.638;11.070;2022-09-19T01:03:37;0.82;;;0.40;;
70444;SDS011;57902;49.638;11.070;2022-09-19T01:08:56;2.05;;;0.50;;
70444;SDS011;57902;49.638;11.070;2022-09-19T01:20:35;1.85;;;0.50;;
70444;SDS011;57902;49.638;11.070;2022-09-19T01:26:03;1.33;;;0.77;;
70444;SDS011;57902;49.638;11.070;2022-09-19T01:28:47;1.77;;;0.68;;
70444;SDS011;57902;49.638;11.070;2022-09-19T01:31:21;2.35;;;0.77;;
70444;SDS011;57902;49.638;11.070;2022-09-19T01:34:01;3.67;;;0.90;;
70444;SDS011;57902;49.638;11.070;2022-09-19T01:36:34;2.70;;;0.88;;
70444;SDS011;57902;49.638;11.070;2022-09-19T01:39:05;2.55;;;0.73;;
70444;SDS011;57902;49.638;11.070;2022-09-19T01:41:34;2.83;;;0.80;;
70444;SDS011;57902;49.638;11.070;2022-09-19T01:44:02;1.13;;;0.70;;
70444;SDS011;57902;49.638;11.070;2022-09-19T01:49:05;1.77;;;0.80;;
70444;SDS011;57902;49.638;11.070;2022-09-19T01:51:47;2.97;;;0.82;;
70444;SDS011;57902;49.638;11.070;2022-09-19T01:54:28;1.73;;;0.90;;
70444;SDS011;57902;49.638;11.070;2022-09-19T02:00:11;2.45;;;0.90;;
70444;SDS011;57902;49.638;11.070;2022-09-19T02:11:06;1.75;;;0.85;;
70444;SDS011;57902;49.638;11.070;2022-09-19T02:13:37;3.45;;;0.80;;
70444;SDS011;57902;49.638;11.070;2022-09-19T02:19:02;8.52;;;1.27;;
70444;SDS011;57902;49.638;11.070;2022-09-19T02:21:31;3.42;;;0.98;;
70444;SDS011;57902;49.638;11.070;2022-09-19T02:24:04;3.05;;;1.00;;
70444;SDS011;57902;49.638;11.070;2022-09-19T02:26:34;6.43;;;1.17;;
70444;SDS011;57902;49.638;11.070;2022-09-19T02:29:02;3.42;;;1.20;;
70444;SDS011;57902;49.638;11.070;2022-09-19T02:31:29;3.92;;;1.20;;
70444;SDS011;57902;49.638;11.070;2022-09-19T02:33:58;4.47;;;1.33;;
70444;SDS011;57902;49.638;11.070;2022-09-19T02:36:45;5.07;;;1.20;;
70444;SDS011;57902;49.638;11.070;2022-09-19T02:39:22;2.78;;;1.00;;
70444;SDS011;57902;49.638;11.070;2022-09-19T02:42:16;3.40;;;1.10;;
70444;SDS011;57902;49.638;11.070;2022-09-19T02:47:35;7.20;;;1.40;;
70444;SDS011;57902;49.638;11.070;2022-09-19T02:50:03;6.53;;;2.80;;
70444;SDS011;57902;49.638;11.070;2022-09-19T02:52:39;3.08;;;1.20;;
70444;SDS011;57902;49.638;11.070;2022-09-19T02:55:12;3.42;;;1.13;;
70444;SDS011;57902;49.638;11.070;2022-09-19T02:57:46;3.15;;;1.30;;
70444;SDS011;57902;49.638;11.070;2022-09-19T03:00:15;3.15;;;1.10;;
70444;SDS011;57902;49.638;11.070;2022-09-19T03:02:43;3.83;;;1.40;;
70444;SDS011;57902;49.638;11.070;2022-09-19T03:05:15;3.63;;;1.55;;
70444;SDS011;57902;49.638;11.070;2022-09-19T03:07:46;7.65;;;1.35;;
70444;SDS011;57902;49.638;11.070;2022-09-19T03:10:23;5.20;;;1.30;;
70444;SDS011;57902;49.638;11.070;2022-09-19T03:12:54;2.83;;;1.40;;
70444;SDS011;57902;49.638;11.070;2022-09-19T03:15:25;4.57;;;1.40;;
70444;SDS011;57902;49.638;11.070;2022-09-19T03:18:04;3.70;;;1.42;;
70444;SDS011;57902;49.638;11.070;2022-09-19T03:20:36;5.25;;;1.60;;
70444;SDS011;57902;49.638;11.070;2022-09-19T03:23:06;3.80;;;1.40;;
70444;SDS011;57902;49.638;11.070;2022-09-19T03:25:36;5.82;;;1.40;;
70444;SDS011;57902;49.638;11.070;2022-09-19T03:28:02;4.22;;;1.40;;
70444;SDS011;57902;49.638;11.070;2022-09-19T03:30:29;6.25;;;1.70;;
70444;SDS011;57902;49.638;11.070;2022-09-19T03:32:55;3.95;;;1.38;;
70444;SDS011;57902;49.638;11.070;2022-09-19T03:35:22;6.05;;;1.60;;
70444;SDS011;57902;49.638;11.070;2022-09-19T03:37:48;2.33;;;1.20;;
70444;SDS011;57902;49.638;11.070;2022-09-19T03:40:16;2.78;;;1.30;;
70444;SDS011;57902;49.638;11.070;2022-09-19T03:42:43;3.08;;;1.25;;
70444;SDS011;57902;49.638;11.070;2022-09-19T03:45:12;2.42;;;1.20;;
70444;SDS011;57902;49.638;11.070;2022-09-19T03:47:38;3.25;;;1.20;;
70444;SDS011;57902;49.638;11.070;2022-09-19T03:50:05;2.35;;;1.05;;
70444;SDS011;57902;49.638;11.070;2022-09-19T03:52:32;5.55;;;1.42;;
70444;SDS011;57902;49.638;11.070;2022-09-19T03:55:00;3.38;;;1.30;;
70444;SDS011;57902;49.638;11.070;2022-09-19T03:57:26;2.97;;;1.17;;
70444;SDS011;57902;49.638;11.070;2022-09-19T03:59:52;6.00;;;1.17;;
70444;SDS011;57902;49.638;11.070;2022-09-19T04:02:19;4.32;;;1.20;;
70444;SDS011;57902;49.638;11.070;2022-09-19T04:04:45;3.97;;;1.45;;
70444;SDS011;57902;49.638;11.070;2022-09-19T04:07:12;4.10;;;1.30;;
70444;SDS011;57902;49.638;11.070;2022-09-19T04:09:38;3.55;;;1.40;;
70444;SDS011;57902;49.638;11.070;2022-09-19T04:12:04;5.28;;;1.85;;
70444;SDS011;57902;49.638;11.070;2022-09-19T04:14:32;8.35;;;1.80;;
70444;SDS011;57902;49.638;11.070;2022-09-19T04:17:00;5.88;;;1.40;;
70444;SDS011;57902;49.638;11.070;2022-09-19T04:19:46;7.22;;;2.20;;
70444;SDS011;57902;49.638;11.070;2022-09-19T04:22:14;4.57;;;1.50;;
70444;SDS011;57902;49.638;11.070;2022-09-19T04:24:41;5.55;;;1.75;;
70444;SDS011;57902;49.638;11.070;2022-09-19T04:27:09;3.85;;;1.65;;
70444;SDS011;57902;49.638;11.070;2022-09-19T04:29:37;6.05;;;1.85;;
70444;SDS011;57902;49.638;11.070;2022-09-19T04:32:04;5.47;;;1.85;;
70444;SDS011;57902;49.638;11.070;2022-09-19T04:34:30;10.27;;;2.83;;
70444;SDS011;57902;49.638;11.070;2022-09-19T04:36:57;5.15;;;1.83;;
70444;SDS011;57902;49.638;11.070;2022-09-19T04:39:24;9.77;;;2.17;;
70444;SDS011;57902;49.638;11.070;2022-09-19T04:41:51;7.85;;;2.30;;
70444;SDS011;57902;49.638;11.070;2022-09-19T04:44:18;11.65;;;2.30;;
70444;SDS011;57902;49.638;11.070;2022-09-19T04:46:54;7.45;;;2.30;;
70444;SDS011;57902;49.638;11.070;2022-09-19T04:49:21;6.80;;;1.70;;
70444;SDS011;57902;49.638;11.070;2022-09-19T04:51:47;6.25;;;2.30;;
70444;SDS011;57902;49.638;11.070;2022-09-19T04:54:14;6.15;;;1.85;;
70444;SDS011;57902;49.638;11.070;2022-09-19T04:56:40;6.05;;;2.10;;
70444;SDS011;57902;49.638;11.070;2022-09-19T04:59:10;6.28;;;2.05;;
70444;SDS011;57902;49.638;11.070;2022-09-19T05:01:37;7.20;;;2.50;;
70444;SDS011;57902;49.638;11.070;2022-09-19T05:04:04;9.75;;;2.58;;
70444;SDS011;57902;49.638;11.070;2022-09-19T05:06:31;7.03;;;2.75;;
70444;SDS011;57902;49.638;11.070;2022-09-19T05:08:58;8.65;;;2.63;;
70444;SDS011;57902;49.638;11.070;2022-09-19T05:11:24;8.55;;;3.67;;
70444;SDS011;57902;49.638;11.070;2022-09-19T05:13:51;6.38;;;2.75;;
70444;SDS011;57902;49.638;11.070;2022-09-19T05:16:18;9.40;;;2.45;;
70444;SDS011;57902;49.638;11.070;2022-09-19T05:18:46;8.18;;;2.00;;
70444;SDS011;57902;49.638;11.070;2022-09-19T05:21:13;7.57;;;2.65;;
70444;SDS011;57902;49.638;11.070;2022-09-19T05:23:41;8.23;;;2.42;;
70444;SDS011;57902;49.638;11.070;2022-09-19T05:26:11;7.05;;;2.10;;
70444;SDS011;57902;49.638;11.070;2022-09-19T05:28:42;5.85;;;2.15;;
70444;SDS011;57902;49.638;11.070;2022-09-19T05:31:12;9.50;;;2.28;;
70444;SDS011;57902;49.638;11.070;2022-09-19T05:33:39;8.60;;;2.25;;
70444;SDS011;57902;49.638;11.070;2022-09-19T05:36:06;7.20;;;2.58;;
70444;SDS011;57902;49.638;11.070;2022-09-19T05:38:32;8.40;;;2.55;;
70444;SDS011;57902;49.638;11.070;2022-09-19T05:41:01;4.88;;;1.92;;
70444;SDS011;57902;49.638;11.070;2022-09-19T05:45:55;6.63;;;2.17;;
70444;SDS011;57902;49.638;11.070;2022-09-19T05:48:23;10.63;;;2.30;;
70444;SDS011;57902;49.638;11.070;2022-09-19T05:50:51;6.68;;;2.70;;
70444;SDS011;57902;49.638;11.070;2022-09-19T05:53:19;6.28;;;2.05;;
70444;SDS011;57902;49.638;11.070;2022-09-19T05:56:05;7.63;;;2.35;;
70444;SDS011;57902;49.638;11.070;2022-09-19T05:58:35;8.30;;;2.20;;
70444;SDS011;57902;49.638;11.070;2022-09-19T06:01:03;7.10;;;2.85;;
70444;SDS011;57902;49.638;11.070;2022-09-19T06:03:33;7.68;;;2.70;;
70444;SDS011;57902;49.638;11.070;2022-09-19T06:06:00;6.90;;;2.13;;
70444;SDS011;57902;49.638;11.070;2022-09-19T06:08:27;5.28;;;2.03;;
70444;SDS011;57902;49.638;11.070;2022-09-19T06:10:53;9.30;;;3.22;;
70444;SDS011;57902;49.638;11.070;2022-09-19T06:13:21;10.85;;;2.50;;
70444;SDS011;57902;49.638;11.070;2022-09-19T06:18:16;7.45;;;2.10;;
70444;SDS011;57902;49.638;11.070;2022-09-19T06:20:43;7.38;;;2.08;;
70444;SDS011;57902;49.638;11.070;2022-09-19T06:23:10;8.88;;;2.30;;
70444;SDS011;57902;49.638;11.070;2022-09-19T06:25:38;8.85;;;2.38;;
70444;SDS011;57902;49.638;11.070;2022-09-19T06:28:08;7.63;;;2.25;;
70444;SDS011;57902;49.638;11.070;2022-09-19T06:30:37;7.63;;;2.63;;
70444;SDS011;57902;49.638;11.070;2022-09-19T06:33:04;7.15;;;2.30;;
70444;SDS011;57902;49.638;11.070;2022-09-19T06:35:34;8.63;;;2.30;;
70444;SDS011;57902;49.638;11.070;2022-09-19T06:38:01;6.07;;;2.00;;
70444;SDS011;57902;49.638;11.070;2022-09-19T06:40:34;8.45;;;2.47;;
70444;SDS011;57902;49.638;11.070;2022-09-19T06:43:04;7.13;;;1.88;;
70444;SDS011;57902;49.638;11.070;2022-09-19T06:45:32;6.13;;;2.00;;
70444;SDS011;57902;49.638;11.070;2022-09-19T06:48:04;9.05;;;3.50;;
70444;SDS011;57902;49.638;11.070;2022-09-19T06:50:31;9.93;;;2.10;;
70444;SDS011;57902;49.638;11.070;2022-09-19T06:52:58;6.07;;;2.13;;
70444;SDS011;57902;49.638;11.070;2022-09-19T06:55:24;6.10;;;2.20;;
70444;SDS011;57902;49.638;11.070;2022-09-19T06:57:55;9.23;;;1.90;;
70444;SDS011;57902;49.638;11.070;2022-09-19T07:00:24;5.95;;;2.10;;
70444;SDS011;57902;49.638;11.070;2022-09-19T07:02:52;7.82;;;2.10;;
70444;SDS011;57902;49.638;11.070;2022-09-19T07:05:20;7.50;;;2.60;;
70444;SDS011;57902;49.638;11.070;2022-09-19T07:07:46;8.50;;;2.53;;
70444;SDS011;57902;49.638;11.070;2022-09-19T07:10:14;6.80;;;3.05;;
70444;SDS011;57902;49.638;11.070;2022-09-19T07:12:41;6.15;;;2.40;;
70444;SDS011;57902;49.638;11.070;2022-09-19T07:15:07;5.88;;;2.20;;
70444;SDS011;57902;49.638;11.070;2022-09-19T07:17:34;7.80;;;2.60;;
70444;SDS011;57902;49.638;11.070;2022-09-19T07:20:00;8.77;;;2.30;;
70444;SDS011;57902;49.638;11.070;2022-09-19T07:22:27;8.77;;;2.40;;
70444;SDS011;57902;49.638;11.070;2022-09-19T07:24:53;7.97;;;2.58;;
70444;SDS011;57902;49.638;11.070;2022-09-19T07:27:20;8.50;;;2.50;;
70444;SDS011;57902;49.638;11.070;2022-09-19T07:29:47;8.10;;;2.53;;
70444;SDS011;57902;49.638;11.070;2022-09-19T07:32:17;8.23;;;3.20;;
70444;SDS011;57902;49.638;11.070;2022-09-19T07:34:44;12.82;;;4.57;;
70444;SDS011;57902;49.638;11.070;2022-09-19T07:37:11;10.13;;;3.90;;
70444;SDS011;57902;49.638;11.070;2022-09-19T07:39:38;9.45;;;2.90;;
70444;SDS011;57902;49.638;11.070;2022-09-19T07:42:24;6.15;;;2.08;;
70444;SDS011;57902;49.638;11.070;2022-09-19T07:44:50;9.18;;;3.28;;
70444;SDS011;57902;49.638;11.070;2022-09-19T07:47:17;8.45;;;2.90;;
70444;SDS011;57902;49.638;11.070;2022-09-19T07:49:52;9.27;;;2.30;;
70444;SDS011;57902;49.638;11.070;2022-09-19T07:52:22;7.72;;;2.78;;
70444;SDS011;57902;49.638;11.070;2022-09-19T07:54:49;10.48;;;2.67;;
70444;SDS011;57902;49.638;11.070;2022-09-19T07:57:16;7.05;;;2.10;;
70444;SDS011;57902;49.638;11.070;2022-09-19T07:59:43;8.85;;;3.15;;
70444;SDS011;57902;49.638;11.070;2022-09-19T08:02:11;5.97;;;2.17;;
70444;SDS011;57902;49.638;11.070;2022-09-19T08:04:38;5.95;;;2.08;;
70444;SDS011;57902;49.638;11.070;2022-09-19T08:07:04;5.25;;;1.80;;
70444;SDS011;57902;49.638;11.070;2022-09-19T08:09:32;6.40;;;2.00;;
70444;SDS011;57902;49.638;11.070;2022-09-19T08:12:03;5.25;;;1.95;;
70444;SDS011;57902;49.638;11.070;2022-09-19T08:14:30;7.47;;;2.00;;
70444;SDS011;57902;49.638;11.070;2022-09-19T08:16:57;6.72;;;2.00;;
70444;SDS011;57902;49.638;11.070;2022-09-19T08:19:24;6.65;;;1.90;;
70444;SDS011;57902;49.638;11.070;2022-09-19T08:21:51;7.13;;;2.08;;
70444;SDS011;57902;49.638;11.070;2022-09-19T08:24:17;5.72;;;2.20;;
70444;SDS011;57902;49.638;11.070;2022-09-19T08:26:44;7.95;;;1.90;;
70444;SDS011;57902;49.638;11.070;2022-09-19T08:29:10;9.77;;;2.20;;
70444;SDS011;57902;49.638;11.070;2022-09-19T08:31:37;5.05;;;1.80;;
70444;SDS011;57902;49.638;11.070;2022-09-19T08:34:03;5.45;;;1.77;;
70444;SDS011;57902;49.638;11.070;2022-09-19T08:36:30;5.13;;;1.90;;
70444;SDS011;57902;49.638;11.070;2022-09-19T08:38:58;6.22;;;1.88;;
70444;SDS011;57902;49.638;11.070;2022-09-19T08:47:10;4.82;;;1.60;;
70444;SDS011;57902;49.638;11.070;2022-09-19T08:49:48;5.93;;;1.67;;
70444;SDS011;57902;49.638;11.070;2022-09-19T08:52:34;6.88;;;1.65;;
70444;SDS011;57902;49.638;11.070;2022-09-19T08:55:10;5.43;;;1.48;;
70444;SDS011;57902;49.638;11.070;2022-09-19T08:58:01;8.40;;;1.70;;
70444;SDS011;57902;49.638;11.070;2022-09-19T09:00:32;5.50;;;1.60;;
70444;SDS011;57902;49.638;11.070;2022-09-19T09:03:06;5.07;;;1.77;;
70444;SDS011;57902;49.638;11.070;2022-09-19T09:05:55;4.15;;;1.40;;
70444;SDS011;57902;49.638;11.070;2022-09-19T09:11:10;7.63;;;1.60;;
70444;SDS011;57902;49.638;11.070;2022-09-19T09:16:43;7.68;;;1.15;;
70444;SDS011;57902;49.638;11.070;2022-09-19T09:22:16;4.82;;;1.30;;
70444;SDS011;57902;49.638;11.070;2022-09-19T09:24:56;6.07;;;1.48;;
70444;SDS011;57902;49.638;11.070;2022-09-19T09:27:41;6.10;;;1.45;;
70444;SDS011;57902;49.638;11.070;2022-09-19T09:30:16;3.95;;;1.40;;
70444;SDS011;57902;49.638;11.070;2022-09-19T09:32:46;6.57;;;1.60;;
70444;SDS011;57902;49.638;11.070;2022-09-19T09:35:23;6.93;;;1.65;;
70444;SDS011;57902;49.638;11.070;2022-09-19T09:38:00;4.53;;;1.60;;
70444;SDS011;57902;49.638;11.070;2022-09-19T09:40:55;12.05;;;1.88;;
70444;SDS011;57902;49.638;11.070;2022-09-19T09:43:54;5.40;;;1.50;;
70444;SDS011;57902;49.638;11.070;2022-09-19T09:46:31;8.68;;;2.22;;
70444;SDS011;57902;49.638;11.070;2022-09-19T09:49:18;5.32;;;1.58;;
70444;SDS011;57902;49.638;11.070;2022-09-19T10:00:28;4.75;;;1.40;;
70444;SDS011;57902;49.638;11.070;2022-09-19T10:03:22;5.57;;;1.63;;
70444;SDS011;57902;49.638;11.070;2022-09-19T10:06:15;10.13;;;2.00;;
70444;SDS011;57902;49.638;11.070;2022-09-19T10:09:05;6.97;;;1.75;;
70444;SDS011;57902;49.638;11.070;2022-09-19T10:11:38;3.88;;;1.63;;
70444;SDS011;57902;49.638;11.070;2022-09-19T10:14:31;7.00;;;1.60;;
70444;SDS011;57902;49.638;11.070;2022-09-19T10:17:01;4.88;;;1.60;;
70444;SDS011;57902;49.638;11.070;2022-09-19T10:19:42;2.90;;;1.27;;
70444;SDS011;57902;49.638;11.070;2022-09-19T10:22:13;4.82;;;1.40;;
70444;SDS011;57902;49.638;11.070;2022-09-19T10:24:48;4.43;;;1.30;;
70444;SDS011;57902;49.638;11.070;2022-09-19T10:29:58;4.30;;;1.50;;
70444;SDS011;57902;49.638;11.070;2022-09-19T10:32:28;4.90;;;1.30;;
70444;SDS011;57902;49.638;11.070;2022-09-19T10:40:30;32.90;;;2.30;;
70444;SDS011;57902;49.638;11.070;2022-09-19T10:42:58;7.35;;;1.30;;
70444;SDS011;57902;49.638;11.070;2022-09-19T10:50:34;5.15;;;1.40;;
70444;SDS011;57902;49.638;11.070;2022-09-19T10:53:15;6.00;;;1.45;;
70444;SDS011;57902;49.638;11.070;2022-09-19T10:55:44;7.15;;;1.60;;
70444;SDS011;57902;49.638;11.070;2022-09-19T10:58:15;5.80;;;1.40;;
70444;SDS011;57902;49.638;11.070;2022-09-19T11:00:50;4.13;;;1.02;;
70444;SDS011;57902;49.638;11.070;2022-09-19T11:03:18;8.25;;;1.38;;
70444;SDS011;57902;49.638;11.070;2022-09-19T11:06:15;4.65;;;1.33;;
70444;SDS011;57902;49.638;11.070;2022-09-19T11:11:21;7.28;;;1.42;;
70444;SDS011;57902;49.638;11.070;2022-09-19T11:31:46;5.28;;;2.22;;
70444;SDS011;57902;49.638;11.070;2022-09-19T11:37:54;5.30;;;1.20;;
70444;SDS011;57902;49.638;11.070;2022-09-19T11:55:00;5.88;;;1.33;;
70444;SDS011;57902;49.638;11.070;2022-09-19T11:57:40;4.85;;;1.50;;
70444;SDS011;57902;49.638;11.070;2022-09-19T12:00:19;4.80;;;1.38;;
70444;SDS011;57902;49.638;11.070;2022-09-19T12:02:51;6.60;;;1.00;;
70444;SDS011;57902;49.638;11.070;2022-09-19T12:11:47;28.73;;;2.08;;
70444;SDS011;57902;49.638;11.070;2022-09-19T12:16:53;6.32;;;1.20;;
70444;SDS011;57902;49.638;11.070;2022-09-19T12:19:45;5.97;;;1.15;;
70444;SDS011;57902;49.638;11.070;2022-09-19T12:22:18;7.18;;;1.20;;
70444;SDS011;57902;49.638;11.070;2022-09-19T12:24:50;2.70;;;1.05;;
70444;SDS011;57902;49.638;11.070;2022-09-19T12:54:43;5.45;;;0.98;;
70444;SDS011;57902;49.638;11.070;2022-09-19T12:57:17;2.60;;;1.10;;
70444;SDS011;57902;49.638;11.070;2022-09-19T12:59:49;6.90;;;1.10;;
70444;SDS011;57902;49.638;11.070;2022-09-19T13:02:23;9.18;;;1.27;;
70444;SDS011;57902;49.638;11.070;2022-09-19T13:07:38;3.50;;;1.27;;
70444;SDS011;57902;49.638;11.070;2022-09-19T13:10:26;9.07;;;1.40;;
70444;SDS011;57902;49.638;11.070;2022-09-19T13:13:27;3.83;;;1.00;;
70444;SDS011;57902;49.638;11.070;2022-09-19T13:15:57;4.22;;;1.10;;
70444;SDS011;57902;49.638;11.070;2022-09-19T13:18:26;3.05;;;0.93;;
70444;SDS011;57902;49.638;11.070;2022-09-19T13:21:20;4.40;;;1.33;;
70444;SDS011;57902;49.638;11.070;2022-09-19T13:24:25;7.28;;;1.40;;
70444;SDS011;57902;49.638;11.070;2022-09-19T13:27:14;9.50;;;1.67;;
70444;SDS011;57902;49.638;11.070;2022-09-19T13:42:42;5.55;;;1.60;;
70444;SDS011;57902;49.638;11.070;2022-09-19T13:48:31;6.07;;;2.38;;
70444;SDS011;57902;49.638;11.070;2022-09-19T13:51:28;6.57;;;1.52;;
70444;SDS011;57902;49.638;11.070;2022-09-19T13:56:47;8.60;;;1.83;;
70444;SDS011;57902;49.638;11.070;2022-09-19T14:04:38;8.30;;;1.70;;
70444;SDS011;57902;49.638;11.070;2022-09-19T14:07:33;7.57;;;1.63;;
70444;SDS011;57902;49.638;11.070;2022-09-19T14:16:08;5.38;;;1.50;;
70444;SDS011;57902;49.638;11.070;2022-09-19T14:19:02;4.95;;;1.30;;
70444;SDS011;57902;49.638;11.070;2022-09-19T14:24:21;5.00;;;1.48;;
70444;SDS011;57902;49.638;11.070;2022-09-19T14:29:35;4.93;;;1.77;;
70444;SDS011;57902;49.638;11.070;2022-09-19T14:32:09;5.38;;;1.70;;
70444;SDS011;57902;49.638;11.070;2022-09-19T14:37:26;5.78;;;1.80;;
70444;SDS011;57902;49.638;11.070;2022-09-19T14:43:05;6.07;;;1.42;;
70444;SDS011;57902;49.638;11.070;2022-09-19T14:46:04;5.45;;;1.70;;
70444;SDS011;57902;49.638;11.070;2022-09-19T14:48:37;5.13;;;1.55;;
70444;SDS011;57902;49.638;11.070;2022-09-19T14:54:03;6.15;;;1.50;;
70444;SDS011;57902;49.638;11.070;2022-09-19T14:56:36;3.05;;;1.20;;
70444;SDS011;57902;49.638;11.070;2022-09-19T14:59:03;3.22;;;1.20;;
70444;SDS011;57902;49.638;11.070;2022-09-19T15:01:33;6.18;;;1.30;;
70444;SDS011;57902;49.638;11.070;2022-09-19T15:04:09;6.25;;;1.60;;
70444;SDS011;57902;49.638;11.070;2022-09-19T15:09:18;5.97;;;1.58;;
70444;SDS011;57902;49.638;11.070;2022-09-19T15:11:46;2.92;;;1.35;;
70444;SDS011;57902;49.638;11.070;2022-09-19T15:14:13;4.72;;;1.50;;
70444;SDS011;57902;49.638;11.070;2022-09-19T15:16:42;2.75;;;1.20;;
70444;SDS011;57902;49.638;11.070;2022-09-19T15:19:08;5.53;;;1.50;;
70444;SDS011;57902;49.638;11.070;2022-09-19T15:21:36;8.88;;;1.73;;
70444;SDS011;57902;49.638;11.070;2022-09-19T15:24:04;7.18;;;1.70;;
70444;SDS011;57902;49.638;11.070;2022-09-19T15:26:35;7.95;;;1.40;;
70444;SDS011;57902;49.638;11.070;2022-09-19T15:32:46;6.07;;;1.10;;
70444;SDS011;57902;49.638;11.070;2022-09-19T15:35:03;5.68;;;1.20;;
70444;SDS011;57902;49.638;11.070;2022-09-19T15:37:40;3.70;;;1.10;;
70444;SDS011;57902;49.638;11.070;2022-09-19T15:40:29;3.88;;;1.25;;
70444;SDS011;57902;49.638;11.070;2022-09-19T15:42:58;3.65;;;1.02;;
70444;SDS011;57902;49.638;11.070;2022-09-19T15:47:57;2.80;;;1.00;;
70444;SDS011;57902;49.638;11.070;2022-09-19T15:51:00;4.93;;;1.13;;
70444;SDS011;57902;49.638;11.070;2022-09-19T15:53:36;5.28;;;1.20;;
70444;SDS011;57902;49.638;11.070;2022-09-19T15:58:54;4.85;;;1.55;;
70444;SDS011;57902;49.638;11.070;2022-09-19T16:01:26;6.78;;;1.88;;
70444;SDS011;57902;49.638;11.070;2022-09-19T16:06:58;4.22;;;1.58;;
70444;SDS011;57902;49.638;11.070;2022-09-19T16:09:49;3.33;;;1.30;;
70444;SDS011;57902;49.638;11.070;2022-09-19T16:12:39;7.30;;;1.85;;
70444;SDS011;57902;49.638;11.070;2022-09-19T16:15:30;6.35;;;2.60;;
70444;SDS011;57902;49.638;11.070;2022-09-19T16:23:15;5.00;;;1.67;;
70444;SDS011;57902;49.638;11.070;2022-09-19T16:25:44;5.50;;;1.90;;
70444;SDS011;57902;49.638;11.070;2022-09-19T16:28:16;8.13;;;2.00;;
70444;SDS011;57902;49.638;11.070;2022-09-19T16:33:36;7.00;;;2.28;;
70444;SDS011;57902;49.638;11.070;2022-09-19T16:36:10;11.38;;;2.50;;
70444;SDS011;57902;49.638;11.070;2022-09-19T16:38:59;7.35;;;2.22;;
70444;SDS011;57902;49.638;11.070;2022-09-19T16:41:43;5.57;;;2.28;;
70444;SDS011;57902;49.638;11.070;2022-09-19T16:44:33;9.82;;;2.60;;
70444;SDS011;57902;49.638;11.070;2022-09-19T16:49:41;118.50;;;7.88;;
70444;SDS011;57902;49.638;11.070;2022-09-19T16:52:30;27.27;;;3.17;;
70444;SDS011;57902;49.638;11.070;2022-09-19T16:57:24;9.20;;;3.08;;
70444;SDS011;57902;49.638;11.070;2022-09-19T16:59:52;7.10;;;2.15;;
70444;SDS011;57902;49.638;11.070;2022-09-19T17:07:16;9.40;;;2.00;;
70444;SDS011;57902;49.638;11.070;2022-09-19T17:09:46;13.48;;;1.85;;
70444;SDS011;57902;49.638;11.070;2022-09-19T17:12:15;8.50;;;2.10;;
70444;SDS011;57902;49.638;11.070;2022-09-19T17:14:43;4.97;;;1.73;;
70444;SDS011;57902;49.638;11.070;2022-09-19T17:17:10;4.88;;;1.65;;
70444;SDS011;57902;49.638;11.070;2022-09-19T17:19:40;3.75;;;1.60;;
70444;SDS011;57902;49.638;11.070;2022-09-19T17:22:14;7.55;;;1.80;;
70444;SDS011;57902;49.638;11.070;2022-09-19T17:24:42;12.60;;;1.92;;
70444;SDS011;57902;49.638;11.070;2022-09-19T17:27:09;6.05;;;1.70;;
70444;SDS011;57902;49.638;11.070;2022-09-19T17:29:35;5.72;;;1.98;;
70444;SDS011;57902;49.638;11.070;2022-09-19T17:32:03;7.70;;;1.95;;
70444;SDS011;57902;49.638;11.070;2022-09-19T17:34:31;8.15;;;2.00;;
70444;SDS011;57902;49.638;11.070;2022-09-19T17:36:58;8.13;;;2.42;;
70444;SDS011;57902;49.638;11.070;2022-09-19T17:39:24;15.25;;;2.38;;
70444;SDS011;57902;49.638;11.070;2022-09-19T17:41:50;5.82;;;2.22;;
70444;SDS011;57902;49.638;11.070;2022-09-19T17:44:17;8.18;;;2.28;;
70444;SDS011;57902;49.638;11.070;2022-09-19T17:46:43;6.72;;;2.70;;
70444;SDS011;57902;49.638;11.070;2022-09-19T17:49:10;5.80;;;2.20;;
70444;SDS011;57902;49.638;11.070;2022-09-19T17:51:36;6.65;;;2.08;;
70444;SDS011;57902;49.638;11.070;2022-09-19T17:54:03;8.00;;;2.47;;
70444;SDS011;57902;49.638;11.070;2022-09-19T17:56:29;6.53;;;2.28;;
70444;SDS011;57902;49.638;11.070;2022-09-19T17:58:57;10.98;;;2.47;;
70444;SDS011;57902;49.638;11.070;2022-09-19T18:01:26;8.38;;;2.53;;
70444;SDS011;57902;49.638;11.070;2022-09-19T18:04:12;10.40;;;2.42;;
70444;SDS011;57902;49.638;11.070;2022-09-19T18:06:49;9.32;;;2.95;;
70444;SDS011;57902;49.638;11.070;2022-09-19T18:09:16;9.25;;;2.72;;
70444;SDS011;57902;49.638;11.070;2022-09-19T18:11:44;7.40;;;2.50;;
70444;SDS011;57902;49.638;11.070;2022-09-19T18:14:11;7.95;;;2.45;;
70444;SDS011;57902;49.638;11.070;2022-09-19T18:16:43;6.25;;;2.00;;
70444;SDS011;57902;49.638;11.070;2022-09-19T18:19:09;4.57;;;1.90;;
70444;SDS011;57902;49.638;11.070;2022-09-19T18:21:36;5.97;;;1.80;;
70444;SDS011;57902;49.638;11.070;2022-09-19T18:24:07;4.38;;;1.40;;
70444;SDS011;57902;49.638;11.070;2022-09-19T18:26:34;3.83;;;1.40;;
70444;SDS011;57902;49.638;11.070;2022-09-19T18:29:00;2.42;;;1.23;;
70444;SDS011;57902;49.638;11.070;2022-09-19T18:31:28;2.88;;;1.20;;
70444;SDS011;57902;49.638;11.070;2022-09-19T18:33:55;10.07;;;2.58;;
70444;SDS011;57902;49.638;11.070;2022-09-19T18:36:22;6.65;;;2.22;;
70444;SDS011;57902;49.638;11.070;2022-09-19T18:38:50;5.60;;;1.80;;
70444;SDS011;57902;49.638;11.070;2022-09-19T18:41:19;6.13;;;2.20;;
70444;SDS011;57902;49.638;11.070;2022-09-19T18:43:50;3.40;;;1.58;;
70444;SDS011;57902;49.638;11.070;2022-09-19T18:46:18;6.18;;;1.30;;
70444;SDS011;57902;49.638;11.070;2022-09-19T18:48:47;3.95;;;1.20;;
70444;SDS011;57902;49.638;11.070;2022-09-19T18:51:16;2.63;;;1.20;;